createdAt,value
2019-02-09T00:00:17.593Z,100354.47
2019-02-09T00:00:50.835Z,100354.47
2019-02-09T00:01:22.117Z,100343.67
2019-02-09T00:01:53.350Z,100347.49
2019-02-09T00:02:25.553Z,100349.28
2019-02-09T00:02:56.803Z,100348.87
2019-02-09T00:03:28.015Z,100348.87
2019-02-09T00:03:59.265Z,100354.47
2019-02-09T00:04:30.464Z,100350.58
2019-02-09T00:05:01.711Z,100353.17
2019-02-09T00:05:32.891Z,100347.09
2019-02-09T00:06:04.144Z,100340.95
2019-02-09T00:06:35.322Z,100349.77
2019-02-09T00:07:06.601Z,100351.88
2019-02-09T00:07:37.863Z,100350.66
2019-02-09T00:08:09.486Z,100340.59
2019-02-09T00:08:41.018Z,100351.95
2019-02-09T00:09:12.235Z,100341.96
2019-02-09T00:09:43.435Z,100341.96
2019-02-09T00:10:14.660Z,100341.07
2019-02-09T00:10:45.868Z,100344.16
2019-02-09T00:11:17.124Z,100341.96
2019-02-09T00:11:48.327Z,100341.96
2019-02-09T00:12:19.601Z,100341.96
2019-02-09T00:12:50.813Z,100339.84
2019-02-09T00:13:22.056Z,100336.28
2019-02-09T00:13:53.270Z,100331.90
2019-02-09T00:14:24.491Z,100337.09
2019-02-09T00:14:55.728Z,100335.76
2019-02-09T00:15:26.973Z,100336.65
2019-02-09T00:15:58.196Z,100336.65
2019-02-09T00:16:29.414Z,100330.00
2019-02-09T00:17:00.635Z,100335.27
2019-02-09T00:17:31.875Z,100314.05
2019-02-09T00:18:04.552Z,100330.00
2019-02-09T00:18:35.804Z,100330.00
2019-02-09T00:19:07.009Z,100330.89
2019-02-09T00:19:38.595Z,100329.18
2019-02-09T00:20:15.168Z,100333.90
2019-02-09T00:20:46.351Z,100327.77
2019-02-09T00:21:17.591Z,100317.66
2019-02-09T00:21:48.765Z,100326.99
2019-02-09T00:22:20.034Z,100333.08
2019-02-09T00:22:51.287Z,100325.69
2019-02-09T00:23:22.572Z,100325.69
2019-02-09T00:23:53.863Z,100322.27
2019-02-09T00:24:25.131Z,100322.27
2019-02-09T00:24:56.445Z,100302.77
2019-02-09T00:25:27.753Z,100302.77
2019-02-09T00:25:59.093Z,100323.98
2019-02-09T00:26:30.374Z,100312.31
2019-02-09T00:27:01.664Z,100319.16
2019-02-09T00:27:33.004Z,100319.16
2019-02-09T00:28:04.242Z,100316.14
2019-02-09T00:28:35.452Z,100316.07
2019-02-09T00:29:07.850Z,100316.55
2019-02-09T00:29:46.084Z,100312.17
2019-02-09T00:30:15.298Z,100299.61
2019-02-09T00:30:46.496Z,100299.61
2019-02-09T00:31:17.762Z,100317.70
2019-02-09T00:31:48.970Z,100314.66
2019-02-09T00:32:20.196Z,100314.66
2019-02-09T00:32:51.430Z,100317.25
2019-02-09T00:33:22.715Z,100311.65
2019-02-09T00:33:54.005Z,100315.55
2019-02-09T00:34:25.359Z,100295.52
2019-02-09T00:34:56.643Z,100314.66
2019-02-09T00:35:27.935Z,100319.45
2019-02-09T00:35:59.209Z,100313.77
2019-02-09T00:36:30.491Z,100314.09
2019-02-09T00:37:01.775Z,100304.19
2019-02-09T00:37:33.073Z,100306.38
2019-02-09T00:38:04.330Z,100307.19
2019-02-09T00:38:36.495Z,100289.91
2019-02-09T00:39:08.526Z,100290.40
2019-02-09T00:39:39.747Z,100301.99
2019-02-09T00:40:17.875Z,100301.17
2019-02-09T00:40:49.070Z,100303.77
2019-02-09T00:41:20.309Z,100300.21
2019-02-09T00:41:51.520Z,100300.21
2019-02-09T00:42:22.761Z,100300.21
2019-02-09T00:42:53.968Z,100298.91
2019-02-09T00:43:25.233Z,100300.21
2019-02-09T00:43:56.384Z,100299.80
2019-02-09T00:44:27.642Z,100299.80
2019-02-09T00:44:58.864Z,100292.41
2019-02-09T00:45:30.088Z,100292.41
2019-02-09T00:46:01.294Z,100292.82
2019-02-09T00:46:32.617Z,100292.82
2019-02-09T00:47:03.828Z,100290.18
2019-02-09T00:47:35.074Z,100290.18
2019-02-09T00:48:06.302Z,100290.66
2019-02-09T00:48:37.852Z,100272.09
2019-02-09T00:49:09.144Z,100272.09
2019-02-09T00:49:40.472Z,100283.20
2019-02-09T00:50:13.884Z,100289.77
2019-02-09T00:50:45.128Z,100289.77
2019-02-09T00:51:16.363Z,100286.62
2019-02-09T00:51:47.552Z,100292.38
2019-02-09T00:52:18.807Z,100281.91
2019-02-09T00:52:50.029Z,100285.39
2019-02-09T00:53:21.273Z,100279.19
2019-02-09T00:53:52.441Z,100282.72
2019-02-09T00:54:23.690Z,100282.80
2019-02-09T00:54:54.872Z,100280.60
2019-02-09T00:55:27.212Z,100278.48
2019-02-09T00:55:58.432Z,100278.97
2019-02-09T00:56:29.667Z,100278.97
2019-02-09T00:57:00.831Z,100253.76
2019-02-09T00:57:32.145Z,100279.79
2019-02-09T00:58:03.359Z,100276.38
2019-02-09T00:58:34.596Z,100259.92
2019-02-09T00:59:05.785Z,100277.67
2019-02-09T00:59:37.041Z,100272.92
2019-02-09T01:00:23.537Z,100274.63
2019-02-09T01:00:54.799Z,100274.22
2019-02-09T01:01:26.000Z,100266.83
2019-02-09T01:01:57.350Z,100267.27
2019-02-09T01:02:28.518Z,100267.27
2019-02-09T01:02:59.785Z,100266.83
2019-02-09T01:03:31.107Z,100267.69
2019-02-09T01:04:02.338Z,100271.17
2019-02-09T01:04:33.544Z,100265.09
2019-02-09T01:05:05.768Z,100264.68
2019-02-09T01:05:41.911Z,100262.08
2019-02-09T01:06:13.283Z,100262.08
2019-02-09T01:06:44.586Z,100258.18
2019-02-09T01:07:15.881Z,100259.03
2019-02-09T01:07:47.178Z,100243.14
2019-02-09T01:08:18.419Z,100266.83
2019-02-09T01:08:49.638Z,100255.58
2019-02-09T01:09:21.005Z,100255.58
2019-02-09T01:09:52.180Z,100259.48
2019-02-09T01:10:23.652Z,100254.28
2019-02-09T01:10:54.881Z,100254.28
2019-02-09T01:11:26.190Z,100249.09
2019-02-09T01:11:57.390Z,100258.22
2019-02-09T01:12:28.651Z,100255.21
2019-02-09T01:12:59.837Z,100254.39
2019-02-09T01:13:31.056Z,100254.39
2019-02-09T01:14:02.246Z,100250.02
2019-02-09T01:14:33.477Z,100250.98
2019-02-09T01:15:09.853Z,100254.47
2019-02-09T01:15:41.535Z,100251.80
2019-02-09T01:16:12.709Z,100247.89
2019-02-09T01:16:43.973Z,100245.70
2019-02-09T01:17:15.175Z,100245.38
2019-02-09T01:17:46.399Z,100245.38
2019-02-09T01:18:17.661Z,100229.86
2019-02-09T01:18:48.945Z,100252.80
2019-02-09T01:19:20.226Z,100252.80
2019-02-09T01:19:51.538Z,100241.99
2019-02-09T01:20:25.227Z,100241.99
2019-02-09T01:20:56.426Z,100235.02
2019-02-09T01:21:27.663Z,100235.02
2019-02-09T01:21:58.837Z,100241.52
2019-02-09T01:22:31.082Z,100241.52
2019-02-09T01:23:02.705Z,100237.13
2019-02-09T01:23:33.938Z,100230.30
2019-02-09T01:24:05.126Z,100231.12
2019-02-09T01:24:36.402Z,100221.09
2019-02-09T01:25:09.232Z,100232.08
2019-02-09T01:25:40.502Z,100225.99
2019-02-09T01:26:11.685Z,100229.07
2019-02-09T01:26:42.883Z,100226.92
2019-02-09T01:27:14.051Z,100224.73
2019-02-09T01:27:45.417Z,100205.76
2019-02-09T01:28:16.598Z,100222.20
2019-02-09T01:28:47.853Z,100215.19
2019-02-09T01:29:19.056Z,100215.19
2019-02-09T01:29:50.293Z,100216.67
2019-02-09T01:30:28.296Z,100221.09
2019-02-09T01:30:59.545Z,100221.09
2019-02-09T01:31:30.763Z,100213.77
2019-02-09T01:32:01.979Z,100213.77
2019-02-09T01:32:33.195Z,100213.36
2019-02-09T01:33:04.435Z,100200.36
2019-02-09T01:33:35.657Z,100200.36
2019-02-09T01:34:06.901Z,100200.77
2019-02-09T01:34:38.432Z,100189.19
2019-02-09T01:35:12.562Z,100195.09
2019-02-09T01:35:43.808Z,100198.17
2019-02-09T01:36:15.051Z,100198.17
2019-02-09T01:36:46.267Z,100198.66
2019-02-09T01:37:17.484Z,100195.09
2019-02-09T01:37:49.603Z,100193.86
2019-02-09T01:38:20.874Z,100193.86
2019-02-09T01:38:52.097Z,100192.08
2019-02-09T01:39:23.297Z,100188.59
2019-02-09T01:39:54.570Z,100190.72
2019-02-09T01:40:27.604Z,100192.49
2019-02-09T01:40:59.534Z,100192.49
2019-02-09T01:41:30.893Z,100179.09
2019-02-09T01:42:02.100Z,100179.09
2019-02-09T01:42:33.326Z,100185.48
2019-02-09T01:43:04.552Z,100178.91
2019-02-09T01:43:35.783Z,100178.91
2019-02-09T01:44:08.002Z,100185.00
2019-02-09T01:44:39.242Z,100161.66
2019-02-09T01:45:20.670Z,100161.66
2019-02-09T01:45:51.925Z,100178.09
2019-02-09T01:46:23.164Z,100184.11
2019-02-09T01:46:54.376Z,100178.42
2019-02-09T01:47:25.585Z,100183.63
2019-02-09T01:47:56.802Z,100178.39
2019-02-09T01:48:28.037Z,100172.30
2019-02-09T01:48:59.357Z,100173.05
2019-02-09T01:49:30.655Z,100173.05
2019-02-09T01:50:04.100Z,100166.10
2019-02-09T01:50:35.387Z,100170.11
2019-02-09T01:51:06.572Z,100175.72
2019-02-09T01:51:37.999Z,100175.72
2019-02-09T01:52:09.167Z,100170.52
2019-02-09T01:52:40.401Z,100170.04
2019-02-09T01:53:12.569Z,100170.93
2019-02-09T01:53:43.835Z,100167.81
2019-02-09T01:54:15.052Z,100167.81
2019-02-09T01:54:46.284Z,100166.96
2019-02-09T01:55:17.491Z,100166.96
2019-02-09T01:55:48.713Z,100166.96
2019-02-09T01:56:19.933Z,100166.96
2019-02-09T01:56:51.160Z,100161.76
2019-02-09T01:57:22.368Z,100162.61
2019-02-09T01:57:53.600Z,100165.66
2019-02-09T01:58:24.842Z,100159.16
2019-02-09T01:58:56.111Z,100161.76
2019-02-09T01:59:27.297Z,100161.76
2019-02-09T01:59:58.572Z,100154.34
2019-02-09T02:00:34.491Z,100154.34
2019-02-09T02:01:05.835Z,100160.05
2019-02-09T02:01:37.006Z,100154.81
2019-02-09T02:02:08.599Z,100157.45
2019-02-09T02:02:39.798Z,100156.16
2019-02-09T02:03:11.202Z,100156.56
2019-02-09T02:03:42.417Z,100147.53
2019-02-09T02:04:13.657Z,100139.45
2019-02-09T02:04:44.876Z,100139.45
2019-02-09T02:05:21.922Z,100149.25
2019-02-09T02:05:53.103Z,100148.91
2019-02-09T02:06:24.337Z,100149.73
2019-02-09T02:06:55.517Z,100139.73
2019-02-09T02:07:26.807Z,100145.83
2019-02-09T02:07:57.973Z,100143.23
2019-02-09T02:08:29.248Z,100138.85
2019-02-09T02:09:00.477Z,100146.16
2019-02-09T02:09:31.699Z,100134.03
2019-02-09T02:10:08.303Z,100134.03
2019-02-09T02:10:39.530Z,100131.42
2019-02-09T02:11:10.997Z,100134.84
2019-02-09T02:11:42.200Z,100132.66
2019-02-09T02:12:13.423Z,100133.95
2019-02-09T02:12:44.650Z,100128.34
2019-02-09T02:13:15.908Z,100132.66
2019-02-09T02:13:47.141Z,100126.94
2019-02-09T02:14:18.406Z,100128.76
2019-02-09T02:14:49.611Z,100133.55
2019-02-09T02:15:20.865Z,100128.76
2019-02-09T02:15:52.067Z,100128.28
2019-02-09T02:16:23.311Z,100126.98
2019-02-09T02:16:54.527Z,100123.45
2019-02-09T02:17:25.714Z,100120.00
2019-02-09T02:17:56.984Z,100120.89
2019-02-09T02:18:28.228Z,100126.09
2019-02-09T02:18:59.454Z,100120.07
2019-02-09T02:19:30.702Z,100119.66
2019-02-09T02:20:06.732Z,100119.66
2019-02-09T02:20:37.957Z,100118.02
2019-02-09T02:21:09.152Z,100099.48
2019-02-09T02:21:40.454Z,100118.95
2019-02-09T02:22:11.704Z,100115.94
2019-02-09T02:22:43.062Z,100115.94
2019-02-09T02:23:14.261Z,100117.72
2019-02-09T02:23:45.522Z,100117.31
2019-02-09T02:24:16.780Z,100117.31
2019-02-09T02:24:48.069Z,100108.63
2019-02-09T02:25:19.390Z,100111.22
2019-02-09T02:25:50.672Z,100111.22
2019-02-09T02:26:21.948Z,100116.45
2019-02-09T02:26:53.274Z,100107.84
2019-02-09T02:27:24.558Z,100107.84
2019-02-09T02:27:55.867Z,100106.54
2019-02-09T02:28:27.149Z,100110.84
2019-02-09T02:28:58.411Z,100109.06
2019-02-09T02:29:29.695Z,100105.65
2019-02-09T02:30:00.902Z,100105.65
2019-02-09T02:30:38.287Z,100102.16
2019-02-09T02:31:09.479Z,100101.75
2019-02-09T02:31:40.975Z,100101.75
2019-02-09T02:32:12.183Z,100098.27
2019-02-09T02:32:43.516Z,100098.27
2019-02-09T02:33:14.748Z,100101.75
2019-02-09T02:33:46.072Z,100101.75
2019-02-09T02:34:17.343Z,100101.00
2019-02-09T02:34:48.630Z,100078.02
2019-02-09T02:35:19.993Z,100102.74
2019-02-09T02:35:51.303Z,100096.66
2019-02-09T02:36:22.578Z,100096.66
2019-02-09T02:36:54.039Z,100101.03
2019-02-09T02:37:25.280Z,100101.03
2019-02-09T02:37:56.603Z,100093.72
2019-02-09T02:38:27.882Z,100093.72
2019-02-09T02:38:59.182Z,100096.31
2019-02-09T02:39:30.435Z,100093.30
2019-02-09T02:40:02.192Z,100093.30
2019-02-09T02:40:33.454Z,100098.98
2019-02-09T02:41:05.635Z,100092.08
2019-02-09T02:41:36.876Z,100088.59
2019-02-09T02:42:08.049Z,100094.70
2019-02-09T02:42:39.307Z,100094.70
2019-02-09T02:43:10.481Z,100077.47
2019-02-09T02:43:41.771Z,100089.10
2019-02-09T02:44:12.974Z,100070.08
2019-02-09T02:44:44.212Z,100083.83
2019-02-09T02:45:20.413Z,100088.63
2019-02-09T02:45:51.675Z,100088.63
2019-02-09T02:46:22.891Z,100086.91
2019-02-09T02:46:54.130Z,100087.33
2019-02-09T02:47:25.307Z,100088.21
2019-02-09T02:47:56.559Z,100083.80
2019-02-09T02:48:27.789Z,100071.83
2019-02-09T02:48:59.066Z,100071.83
2019-02-09T02:49:30.334Z,100077.78
2019-02-09T02:50:01.904Z,100082.98
2019-02-09T02:50:33.161Z,100074.56
2019-02-09T02:51:04.518Z,100060.87
2019-02-09T02:51:35.702Z,100082.43
2019-02-09T02:52:06.978Z,100084.14
2019-02-09T02:52:38.367Z,100084.14
2019-02-09T02:53:09.621Z,100082.02
2019-02-09T02:53:40.798Z,100080.72
2019-02-09T02:54:12.096Z,100075.93
2019-02-09T02:54:43.372Z,100075.93
2019-02-09T02:55:28.962Z,100072.86
2019-02-09T02:56:01.172Z,100072.86
2019-02-09T02:56:32.396Z,100068.55
2019-02-09T02:57:03.618Z,100057.80
2019-02-09T02:57:34.855Z,100057.80
2019-02-09T02:58:06.081Z,100072.44
2019-02-09T02:58:37.308Z,100067.66
2019-02-09T02:59:08.621Z,100073.27
2019-02-09T02:59:39.913Z,100067.63
2019-02-09T03:00:20.979Z,100067.63
2019-02-09T03:00:52.234Z,100052.02
2019-02-09T03:01:24.425Z,100071.45
2019-02-09T03:01:55.732Z,100073.64
2019-02-09T03:02:27.027Z,100077.06
2019-02-09T03:02:58.288Z,100066.66
2019-02-09T03:03:29.555Z,100066.66
2019-02-09T03:04:00.821Z,100067.97
2019-02-09T03:04:32.163Z,100073.64
2019-02-09T03:05:09.318Z,100073.64
2019-02-09T03:05:40.579Z,100066.66
2019-02-09T03:06:11.821Z,100066.19
2019-02-09T03:06:43.018Z,100064.44
2019-02-09T03:07:14.277Z,100064.44
2019-02-09T03:07:45.467Z,100065.73
2019-02-09T03:08:16.753Z,100065.73
2019-02-09T03:08:47.930Z,100062.28
2019-02-09T03:09:20.168Z,100063.59
2019-02-09T03:09:51.394Z,100061.47
2019-02-09T03:10:22.608Z,100042.00
2019-02-09T03:10:53.832Z,100062.28
2019-02-09T03:11:25.068Z,100042.48
2019-02-09T03:11:56.258Z,100042.48
2019-02-09T03:12:27.474Z,100058.86
2019-02-09T03:12:58.690Z,100057.53
2019-02-09T03:13:29.908Z,100057.53
2019-02-09T03:14:01.133Z,100044.61
2019-02-09T03:14:32.377Z,100044.61
2019-02-09T03:15:13.932Z,100053.97
2019-02-09T03:15:45.167Z,100055.79
2019-02-09T03:16:16.401Z,100055.79
2019-02-09T03:16:47.635Z,100060.13
2019-02-09T03:17:18.854Z,100060.55
2019-02-09T03:17:50.065Z,100060.55
2019-02-09T03:18:21.265Z,100057.87
2019-02-09T03:18:52.503Z,100057.87
2019-02-09T03:19:24.701Z,100057.39
2019-02-09T03:19:56.004Z,100057.87
2019-02-09T03:20:27.247Z,100061.36
2019-02-09T03:20:58.443Z,100062.19
2019-02-09T03:21:29.766Z,100057.87
2019-02-09T03:22:01.017Z,100056.16
2019-02-09T03:22:32.219Z,100056.16
2019-02-09T03:23:03.464Z,100056.64
2019-02-09T03:23:34.657Z,100038.93
2019-02-09T03:24:05.956Z,100052.75
2019-02-09T03:24:37.164Z,100054.94
2019-02-09T03:25:18.391Z,100054.94
2019-02-09T03:25:49.593Z,100034.20
2019-02-09T03:26:20.864Z,100034.20
2019-02-09T03:26:52.143Z,100043.64
2019-02-09T03:27:23.413Z,100043.64
2019-02-09T03:27:54.671Z,100047.55
2019-02-09T03:28:25.924Z,100047.99
2019-02-09T03:28:57.103Z,100047.99
2019-02-09T03:29:28.350Z,100040.57
2019-02-09T03:29:59.560Z,100046.34
2019-02-09T03:30:30.867Z,100038.89
2019-02-09T03:31:02.152Z,100042.04
2019-02-09T03:31:33.431Z,100044.64
2019-02-09T03:32:05.042Z,100042.52
2019-02-09T03:32:36.422Z,100042.52
2019-02-09T03:33:08.685Z,100042.93
2019-02-09T03:33:39.958Z,100042.93
2019-02-09T03:34:11.558Z,100044.23
2019-02-09T03:34:42.864Z,100044.64
2019-02-09T03:35:15.165Z,100041.63
2019-02-09T03:35:46.384Z,100041.63
2019-02-09T03:36:17.627Z,100044.64
2019-02-09T03:36:48.791Z,100035.95
2019-02-09T03:37:20.019Z,100037.25
2019-02-09T03:37:51.229Z,100029.45
2019-02-09T03:38:22.537Z,100033.42
2019-02-09T03:38:53.760Z,100032.53
2019-02-09T03:39:24.979Z,100027.75
2019-02-09T03:39:56.167Z,100032.16
2019-02-09T03:40:27.830Z,100025.14
2019-02-09T03:40:59.027Z,100033.87
2019-02-09T03:41:30.254Z,100031.75
2019-02-09T03:42:01.449Z,100029.55
2019-02-09T03:42:32.717Z,100022.23
2019-02-09T03:43:03.952Z,100031.02
2019-02-09T03:43:35.196Z,100031.02
2019-02-09T03:44:06.447Z,100030.20
2019-02-09T03:44:37.834Z,100027.19
2019-02-09T03:45:18.913Z,100027.67
2019-02-09T03:45:50.192Z,100028.49
2019-02-09T03:46:21.488Z,100029.82
2019-02-09T03:46:52.756Z,100018.03
2019-02-09T03:47:24.050Z,100029.82
2019-02-09T03:47:55.455Z,100015.73
2019-02-09T03:48:27.746Z,100033.37
2019-02-09T03:48:59.063Z,100030.78
2019-02-09T03:49:30.353Z,100022.09
2019-02-09T03:50:04.711Z,100024.69
2019-02-09T03:50:35.962Z,100010.88
2019-02-09T03:51:07.225Z,100029.00
2019-02-09T03:51:38.450Z,100029.00
2019-02-09T03:52:09.654Z,100028.18
2019-02-09T03:52:41.310Z,100010.88
2019-02-09T03:53:12.545Z,100020.53
2019-02-09T03:53:43.870Z,100020.53
2019-02-09T03:54:15.205Z,100032.59
2019-02-09T03:54:46.470Z,100033.03
2019-02-09T03:55:17.673Z,100028.25
2019-02-09T03:55:49.071Z,100029.99
2019-02-09T03:56:20.315Z,100025.64
2019-02-09T03:56:51.491Z,100025.27
2019-02-09T03:57:22.802Z,100025.27
2019-02-09T03:57:54.136Z,100030.47
2019-02-09T03:58:25.395Z,100026.57
2019-02-09T03:58:56.593Z,100031.36
2019-02-09T03:59:27.905Z,100024.45
2019-02-09T03:59:59.110Z,100024.45
2019-02-09T04:00:31.371Z,100021.47
2019-02-09T04:01:02.887Z,100021.91
2019-02-09T04:01:34.130Z,100011.59
2019-02-09T04:02:05.326Z,100011.59
2019-02-09T04:02:36.663Z,100027.14
2019-02-09T04:03:07.862Z,100019.41
2019-02-09T04:03:39.158Z,100019.41
2019-02-09T04:04:10.359Z,100017.29
2019-02-09T04:04:41.830Z,100023.34
2019-02-09T04:05:13.634Z,100026.73
2019-02-09T04:05:44.906Z,100021.62
2019-02-09T04:06:16.064Z,100019.09
2019-02-09T04:06:47.326Z,100019.20
2019-02-09T04:07:18.526Z,100021.38
2019-02-09T04:07:49.812Z,100012.70
2019-02-09T04:08:21.006Z,100012.70
2019-02-09T04:08:52.294Z,100009.68
2019-02-09T04:09:23.470Z,100009.68
2019-02-09T04:09:54.726Z,100012.70
2019-02-09T04:10:26.956Z,100014.47
2019-02-09T04:10:58.200Z,100009.27
2019-02-09T04:11:29.391Z,100006.67
2019-02-09T04:12:00.618Z,100009.66
2019-02-09T04:12:31.819Z,100000.17
2019-02-09T04:13:03.135Z,100001.47
2019-02-09T04:13:34.365Z,100000.64
2019-02-09T04:14:05.571Z,100000.58
2019-02-09T04:14:36.793Z,100000.58
2019-02-09T04:15:12.001Z,99998.87
2019-02-09T04:15:43.198Z,99998.05
2019-02-09T04:16:14.513Z,99998.97
2019-02-09T04:16:45.713Z,99994.17
2019-02-09T04:17:16.935Z,99993.77
2019-02-09T04:17:48.135Z,99998.97
2019-02-09T04:18:19.396Z,99998.97
2019-02-09T04:18:50.708Z,99998.97
2019-02-09T04:19:21.947Z,99992.05
2019-02-09T04:19:53.235Z,99993.83
2019-02-09T04:20:24.958Z,99997.32
2019-02-09T04:20:56.198Z,99997.32
2019-02-09T04:21:27.502Z,99979.02
2019-02-09T04:21:58.720Z,99988.63
2019-02-09T04:22:29.941Z,99990.81
2019-02-09T04:23:01.154Z,99978.58
2019-02-09T04:23:32.404Z,99985.62
2019-02-09T04:24:03.627Z,99983.84
2019-02-09T04:24:34.851Z,99983.84
2019-02-09T04:25:13.664Z,99981.72
2019-02-09T04:25:44.915Z,99983.02
2019-02-09T04:26:16.149Z,99976.45
2019-02-09T04:26:47.457Z,99976.45
2019-02-09T04:27:18.741Z,99976.45
2019-02-09T04:27:49.984Z,99968.55
2019-02-09T04:28:21.168Z,99971.22
2019-02-09T04:28:52.409Z,99973.34
2019-02-09T04:29:23.590Z,99971.56
2019-02-09T04:29:54.815Z,99970.74
2019-02-09T04:30:30.892Z,99970.74
2019-02-09T04:31:05.715Z,99971.98
2019-02-09T04:31:36.299Z,99957.67
2019-02-09T04:32:07.575Z,99957.67
2019-02-09T04:32:39.387Z,99963.83
2019-02-09T04:33:10.619Z,99963.83
2019-02-09T04:33:41.809Z,99958.62
2019-02-09T04:34:13.059Z,99957.27
2019-02-09T04:34:44.298Z,99956.85
2019-02-09T04:35:15.517Z,99961.17
2019-02-09T04:35:46.735Z,99959.93
2019-02-09T04:36:18.020Z,99971.22
2019-02-09T04:36:49.324Z,99956.44
2019-02-09T04:37:20.586Z,99937.03
2019-02-09T04:37:51.917Z,99937.03
2019-02-09T04:38:23.152Z,99952.54
2019-02-09T04:38:54.382Z,99933.55
2019-02-09T04:39:25.619Z,99934.44
2019-02-09T04:39:56.881Z,99952.54
2019-02-09T04:40:31.578Z,99952.54
2019-02-09T04:41:02.836Z,99945.56
2019-02-09T04:41:34.094Z,99945.56
2019-02-09T04:42:05.280Z,99945.56
2019-02-09T04:42:36.530Z,99946.04
2019-02-09T04:43:07.704Z,99946.86
2019-02-09T04:43:39.010Z,99941.66
2019-02-09T04:44:10.204Z,99945.16
2019-02-09T04:44:41.731Z,99925.27
2019-02-09T04:45:16.311Z,99941.66
2019-02-09T04:45:47.578Z,99925.34
2019-02-09T04:46:18.772Z,99925.34
2019-02-09T04:46:50.059Z,99936.46
2019-02-09T04:47:21.260Z,99921.84
2019-02-09T04:47:52.505Z,99921.84
2019-02-09T04:48:23.711Z,99929.90
2019-02-09T04:48:54.942Z,99932.09
2019-02-09T04:49:26.162Z,99933.39
2019-02-09T04:49:57.423Z,99919.34
2019-02-09T04:50:28.623Z,99909.67
2019-02-09T04:50:59.885Z,99926.00
2019-02-09T04:51:31.167Z,99920.38
2019-02-09T04:52:02.455Z,99920.38
2019-02-09T04:52:33.716Z,99923.46
2019-02-09T04:53:04.997Z,99921.34
2019-02-09T04:53:36.315Z,99918.33
2019-02-09T04:54:07.839Z,99915.75
2019-02-09T04:54:39.160Z,99917.53
2019-02-09T04:55:19.678Z,99917.53
2019-02-09T04:55:50.957Z,99912.39
2019-02-09T04:56:22.123Z,99912.39
2019-02-09T04:56:53.384Z,99916.77
2019-02-09T04:57:24.579Z,99916.77
2019-02-09T04:57:55.853Z,99900.44
2019-02-09T04:58:27.105Z,99905.83
2019-02-09T04:58:58.334Z,99911.50
2019-02-09T04:59:29.612Z,99912.80
2019-02-09T05:00:00.858Z,99910.14
2019-02-09T05:00:32.043Z,99910.14
2019-02-09T05:01:03.355Z,99906.23
2019-02-09T05:01:34.543Z,99911.44
2019-02-09T05:02:05.786Z,99910.14
2019-02-09T05:02:36.965Z,99909.25
2019-02-09T05:03:08.393Z,99909.25
2019-02-09T05:03:39.572Z,99907.95
2019-02-09T05:04:10.969Z,99914.04
2019-02-09T05:04:42.158Z,99908.36
2019-02-09T05:05:13.441Z,99902.57
2019-02-09T05:05:44.638Z,99911.41
2019-02-09T05:06:15.899Z,99911.41
2019-02-09T05:06:47.115Z,99908.81
2019-02-09T05:07:18.338Z,99908.81
2019-02-09T05:07:49.538Z,99908.81
2019-02-09T05:08:20.805Z,99908.81
2019-02-09T05:08:52.030Z,99904.05
2019-02-09T05:09:23.273Z,99901.45
2019-02-09T05:09:54.466Z,99910.14
2019-02-09T05:10:25.705Z,99900.63
2019-02-09T05:10:56.881Z,99900.63
2019-02-09T05:11:28.122Z,99901.10
2019-02-09T05:11:59.289Z,99900.63
2019-02-09T05:12:30.617Z,99901.04
2019-02-09T05:13:01.797Z,99902.75
2019-02-09T05:13:33.113Z,99884.69
2019-02-09T05:14:04.288Z,99903.23
2019-02-09T05:14:35.513Z,99903.23
2019-02-09T05:15:10.399Z,99901.52
2019-02-09T05:15:41.733Z,99897.14
2019-02-09T05:16:12.917Z,99897.14
2019-02-09T05:16:44.169Z,99878.34
2019-02-09T05:17:15.364Z,99892.89
2019-02-09T05:17:46.620Z,99888.03
2019-02-09T05:18:17.828Z,99890.70
2019-02-09T05:18:49.093Z,99866.52
2019-02-09T05:19:20.278Z,99866.52
2019-02-09T05:19:51.533Z,99879.83
2019-02-09T05:20:24.721Z,99879.34
2019-02-09T05:20:56.490Z,99882.81
2019-02-09T05:21:27.790Z,99884.55
2019-02-09T05:21:58.967Z,99884.55
2019-02-09T05:22:30.267Z,99860.40
2019-02-09T05:23:01.480Z,99873.70
2019-02-09T05:23:32.722Z,99869.33
2019-02-09T05:24:03.961Z,99878.84
2019-02-09T05:24:35.234Z,99884.93
2019-02-09T05:25:09.402Z,99884.93
2019-02-09T05:25:41.149Z,99867.73
2019-02-09T05:26:12.314Z,99867.73
2019-02-09T05:26:43.592Z,99880.62
2019-02-09T05:27:14.777Z,99877.55
2019-02-09T05:27:46.030Z,99875.36
2019-02-09T05:28:17.221Z,99872.28
2019-02-09T05:28:48.487Z,99879.25
2019-02-09T05:29:19.695Z,99877.89
2019-02-09T05:29:51.118Z,99877.89
2019-02-09T05:30:28.268Z,99867.47
2019-02-09T05:30:59.513Z,99867.47
2019-02-09T05:31:30.722Z,99869.66
2019-02-09T05:32:01.963Z,99864.87
2019-02-09T05:32:33.275Z,99845.89
2019-02-09T05:33:04.598Z,99865.69
2019-02-09T05:33:35.864Z,99844.59
2019-02-09T05:34:07.096Z,99844.59
2019-02-09T05:34:38.579Z,99863.44
2019-02-09T05:35:09.775Z,99863.44
2019-02-09T05:35:41.589Z,99867.31
2019-02-09T05:36:12.825Z,99867.31
2019-02-09T05:36:44.100Z,99863.41
2019-02-09T05:37:16.375Z,99859.04
2019-02-09T05:37:47.593Z,99856.37
2019-02-09T05:38:18.822Z,99856.37
2019-02-09T05:38:50.060Z,99834.77
2019-02-09T05:39:21.270Z,99859.42
2019-02-09T05:39:56.080Z,99845.23
2019-02-09T05:40:29.669Z,99870.23
2019-02-09T05:41:00.929Z,99870.23
2019-02-09T05:41:32.645Z,99864.56
2019-02-09T05:42:03.808Z,99864.09
2019-02-09T05:42:35.064Z,99837.34
2019-02-09T05:43:06.249Z,99859.36
2019-02-09T05:43:37.970Z,99859.36
2019-02-09T05:44:09.162Z,99861.96
2019-02-09T05:44:40.516Z,99865.03
2019-02-09T05:45:16.110Z,99846.88
2019-02-09T05:45:47.342Z,99846.88
2019-02-09T05:46:18.577Z,99858.47
2019-02-09T05:46:49.786Z,99858.47
2019-02-09T05:47:20.980Z,99855.05
2019-02-09T05:47:52.244Z,99859.77
2019-02-09T05:48:23.443Z,99861.08
2019-02-09T05:48:54.689Z,99856.76
2019-02-09T05:49:25.871Z,99852.45
2019-02-09T05:49:57.159Z,99852.45
2019-02-09T05:50:28.573Z,99852.03
2019-02-09T05:50:59.765Z,99852.03
2019-02-09T05:51:31.123Z,99833.89
2019-02-09T05:52:02.339Z,99851.63
2019-02-09T05:52:33.595Z,99825.27
2019-02-09T05:53:04.819Z,99825.27
2019-02-09T05:53:36.054Z,99845.53
2019-02-09T05:54:07.273Z,99847.28
2019-02-09T05:54:38.552Z,99847.28
2019-02-09T05:55:09.781Z,99851.63
2019-02-09T05:55:41.127Z,99851.91
2019-02-09T05:56:12.345Z,99842.81
2019-02-09T05:56:43.587Z,99845.80
2019-02-09T05:57:14.790Z,99845.80
2019-02-09T05:57:46.027Z,99835.66
2019-02-09T05:58:17.238Z,99835.66
2019-02-09T05:58:48.482Z,99839.30
2019-02-09T05:59:19.686Z,99839.30
2019-02-09T05:59:50.918Z,99830.96
2019-02-09T06:00:34.845Z,99840.19
2019-02-09T06:01:06.164Z,99839.77
2019-02-09T06:01:37.365Z,99832.39
2019-02-09T06:02:09.804Z,99838.88
2019-02-09T06:02:41.486Z,99832.33
2019-02-09T06:03:12.746Z,99832.33
2019-02-09T06:03:43.950Z,99829.78
2019-02-09T06:04:15.202Z,99834.16